KSUW/SUW METAR and TAF weather

Enter ICAO airport designator
Station Type Date Time Source
KSUW METAR 2019/04/22 17:55 UTC NOAA

KSUW 221755Z AUTO 05012G23KT 10SM -RA OVC011 02/01 A3014 RMK AO2 60037 T00230010 10023 20017


Station Type Date Time Source
KSUW Decoded METAR 2019/04/22 17:55 UTC NOAA

Superior, Richard I. Bong Airport, WI, United States (KSUW) 46-41-23N 092-05-41W
Apr 22, 2019 - 01:55 PM EDT / 2019.04.22 1755 UTC
Wind: from the NE (050 degrees) at 14 MPH (12 KT) gusting to 26 MPH (23 KT):0
Visibility: 10 mile(s):0
Sky conditions: overcast
Weather: light rain
Temperature: 36.1 F (2.3 C)
Dew Point: 33.8 F (1.0 C)
Relative Humidity: 91%
Pressure (altimeter): 30.14 in. Hg (1020 hPa)
ob: KSUW 221755Z AUTO 05012G23KT 10SM -RA OVC011 02/01 A3014 RMK AO2 60037 T00230010 10023 20017
cycle: 18

Station Type Date Time Source
KSUW TAF UTC NOAA

Error!

Example: see airport list